createdAt,value
2018-09-05T00:00:11.307Z,23.88
2018-09-05T00:04:55.509Z,23.61
2018-09-05T00:09:39.138Z,23.71
2018-09-05T00:14:27.831Z,24.01
2018-09-05T00:19:11.330Z,24.30
2018-09-05T00:23:58.490Z,24.27
2018-09-05T00:28:42.067Z,24.12
2018-09-05T00:33:26.778Z,24.19
2018-09-05T00:38:10.347Z,24.19
2018-09-05T00:42:55.115Z,24.33
2018-09-05T00:47:38.659Z,24.37
2018-09-05T00:52:23.239Z,24.34
2018-09-05T00:57:06.715Z,24.45
2018-09-05T01:01:51.378Z,24.57
2018-09-05T01:06:34.733Z,24.39
2018-09-05T01:11:19.322Z,24.04
2018-09-05T01:16:02.576Z,24.20
2018-09-05T01:20:46.938Z,24.37
2018-09-05T01:25:30.290Z,24.47
2018-09-05T01:30:13.674Z,24.21
2018-09-05T01:35:01.097Z,23.73
2018-09-05T01:39:44.454Z,23.92
2018-09-05T01:44:29.082Z,24.01
2018-09-05T01:49:12.580Z,24.01
2018-09-05T01:53:56.117Z,23.93
2018-09-05T01:58:39.472Z,23.96
2018-09-05T02:03:22.863Z,23.93
2018-09-05T02:08:06.137Z,23.74
2018-09-05T02:12:49.669Z,23.31
2018-09-05T02:17:33.090Z,23.29
2018-09-05T02:22:17.513Z,23.47
2018-09-05T02:27:00.864Z,23.68
2018-09-05T02:31:48.454Z,23.59
2018-09-05T02:36:31.883Z,23.76
2018-09-05T02:41:18.316Z,23.76
2018-09-05T02:46:01.734Z,23.26
2018-09-05T02:50:48.340Z,23.48
2018-09-05T02:55:37.041Z,23.68
2018-09-05T03:00:20.285Z,23.67
2018-09-05T03:05:03.641Z,23.39
2018-09-05T03:09:47.026Z,23.43
2018-09-05T03:14:31.473Z,23.49
2018-09-05T03:19:14.937Z,23.57
2018-09-05T03:23:58.523Z,23.59
2018-09-05T03:28:41.916Z,23.67
2018-09-05T03:33:25.428Z,23.72
2018-09-05T03:38:08.750Z,23.69
2018-09-05T03:42:55.570Z,23.67
2018-09-05T03:47:38.984Z,23.52
2018-09-05T03:52:22.505Z,23.17
2018-09-05T03:57:05.964Z,23.26
2018-09-05T04:01:53.406Z,23.36
2018-09-05T04:06:36.857Z,23.49
2018-09-05T04:11:21.135Z,23.39
2018-09-05T04:16:04.534Z,23.50
2018-09-05T04:20:48.972Z,23.55
2018-09-05T04:25:33.528Z,23.55
2018-09-05T04:30:20.767Z,23.43
2018-09-05T04:35:04.159Z,23.44
2018-09-05T04:39:47.530Z,23.52
2018-09-05T04:44:31.377Z,23.49
2018-09-05T04:49:14.622Z,23.55
2018-09-05T04:53:58.152Z,23.49
2018-09-05T04:58:41.661Z,23.53
2018-09-05T05:03:25.201Z,23.48
2018-09-05T05:08:09.106Z,23.44
2018-09-05T05:12:54.051Z,23.35
2018-09-05T05:17:37.565Z,23.41
2018-09-05T05:22:22.113Z,23.41
2018-09-05T05:27:05.592Z,23.50
2018-09-05T05:31:49.140Z,23.19
2018-09-05T05:36:32.733Z,22.65
2018-09-05T05:41:19.589Z,22.91
2018-09-05T05:46:03.070Z,23.12
2018-09-05T05:50:47.069Z,23.14
2018-09-05T05:55:30.495Z,23.18
2018-09-05T06:00:15.329Z,23.40
2018-09-05T06:04:58.688Z,23.22
2018-09-05T06:09:42.101Z,23.16
2018-09-05T06:14:28.858Z,23.13
2018-09-05T06:19:12.157Z,23.00
2018-09-05T06:23:59.396Z,23.08
2018-09-05T06:28:42.762Z,22.76
2018-09-05T06:33:26.352Z,22.75
2018-09-05T06:38:09.683Z,22.69
2018-09-05T06:42:53.146Z,22.75
2018-09-05T06:47:36.478Z,22.97
2018-09-05T06:52:21.042Z,22.76
2018-09-05T06:57:04.251Z,22.84
2018-09-05T07:01:47.704Z,22.79
2018-09-05T07:06:32.102Z,22.87
2018-09-05T07:11:18.644Z,22.98
2018-09-05T07:16:02.128Z,23.25
2018-09-05T07:20:45.750Z,23.19
2018-09-05T07:25:29.290Z,23.22
2018-09-05T07:30:16.001Z,23.13
2018-09-05T07:34:59.709Z,23.31
2018-09-05T07:39:43.153Z,23.39
2018-09-05T07:44:26.933Z,23.34
2018-09-05T07:49:11.017Z,23.52
2018-09-05T07:53:54.628Z,23.33
2018-09-05T07:58:38.094Z,23.43
2018-09-05T08:03:21.768Z,23.57
2018-09-05T08:08:05.396Z,23.60
2018-09-05T08:12:51.955Z,23.47
2018-09-05T08:17:35.351Z,23.37
2018-09-05T08:22:18.823Z,23.64
2018-09-05T08:27:02.197Z,23.98
2018-09-05T08:31:47.758Z,23.92
2018-09-05T08:36:31.511Z,23.85
2018-09-05T08:41:19.478Z,23.97
2018-09-05T08:46:03.200Z,24.31
2018-09-05T08:50:47.749Z,24.50
2018-09-05T08:55:31.228Z,24.40
2018-09-05T09:00:16.611Z,24.48
2018-09-05T09:04:59.963Z,24.33
2018-09-05T09:09:47.057Z,24.50
2018-09-05T09:14:30.769Z,24.35
2018-09-05T09:19:14.080Z,24.30
2018-09-05T09:23:57.649Z,24.35
2018-09-05T09:28:40.939Z,24.36
2018-09-05T09:33:29.152Z,24.27
2018-09-05T09:38:12.635Z,24.23
2018-09-05T09:42:56.229Z,24.33
2018-09-05T09:47:39.610Z,24.51
2018-09-05T09:52:23.307Z,24.68
2018-09-05T09:57:07.042Z,24.86
2018-09-05T10:01:56.865Z,25.08
2018-09-05T10:07:43.493Z,24.96
2018-09-05T10:12:33.778Z,25.02
2018-09-05T10:17:22.915Z,25.08
2018-09-05T10:22:07.484Z,24.98
2018-09-05T10:26:51.723Z,24.81
2018-09-05T10:31:39.201Z,24.78
2018-09-05T10:36:23.554Z,24.68
2018-09-05T10:41:08.106Z,24.64
2018-09-05T10:45:52.899Z,24.61
2018-09-05T10:50:37.536Z,24.43
2018-09-05T10:55:20.912Z,24.38
2018-09-05T11:00:04.386Z,24.20
2018-09-05T11:04:47.771Z,24.05
2018-09-05T11:09:32.270Z,24.08
2018-09-05T11:14:15.623Z,24.03
2018-09-05T11:18:58.955Z,24.13
2018-09-05T11:23:42.332Z,24.27
2018-09-05T11:28:25.737Z,24.29
2018-09-05T11:33:10.237Z,24.30
2018-09-05T11:37:54.358Z,24.47
2018-09-05T11:42:37.805Z,24.51
2018-09-05T11:47:21.182Z,24.60
2018-09-05T11:52:04.910Z,24.69
2018-09-05T11:56:48.252Z,24.74
2018-09-05T12:01:32.169Z,24.99
2018-09-05T12:06:18.063Z,25.37
2018-09-05T12:11:02.469Z,25.68
2018-09-05T12:15:46.626Z,25.96
2018-09-05T12:20:31.025Z,25.62
2018-09-05T12:25:14.446Z,25.45
2018-09-05T12:29:57.931Z,25.37
2018-09-05T12:34:41.370Z,25.37
2018-09-05T12:39:25.044Z,25.32
2018-09-05T12:44:08.597Z,25.27
2018-09-05T12:48:51.942Z,25.16
2018-09-05T12:53:35.405Z,25.21
2018-09-05T12:58:18.752Z,25.41
2018-09-05T13:03:03.203Z,25.79
2018-09-05T13:07:46.694Z,26.02
2018-09-05T13:12:31.177Z,26.20
2018-09-05T13:17:14.614Z,26.56
2018-09-05T13:21:59.171Z,26.53
2018-09-05T13:26:42.817Z,26.42
2018-09-05T13:31:29.485Z,26.13
2018-09-05T13:36:12.790Z,26.02
2018-09-05T13:40:59.323Z,25.92
2018-09-05T13:45:42.710Z,25.88
2018-09-05T13:50:27.126Z,25.91
2018-09-05T13:55:10.567Z,25.86
2018-09-05T13:59:54.210Z,25.85
2018-09-05T14:04:37.326Z,25.90
2018-09-05T14:09:20.758Z,25.97
2018-09-05T14:14:04.153Z,25.94
2018-09-05T14:18:48.858Z,25.93
2018-09-05T14:23:32.093Z,25.88
2018-09-05T14:28:15.442Z,25.94
2018-09-05T14:32:59.031Z,25.92
2018-09-05T14:37:42.542Z,26.00
2018-09-05T14:42:29.450Z,26.07
2018-09-05T14:47:12.934Z,25.89
2018-09-05T14:51:56.445Z,25.88
2018-09-05T14:56:39.918Z,25.86
2018-09-05T15:02:17.339Z,25.81
2018-09-05T15:07:00.704Z,25.78
2018-09-05T15:11:47.859Z,25.77
2018-09-05T15:16:31.206Z,25.71
2018-09-05T15:21:18.455Z,25.69
2018-09-05T15:26:01.739Z,25.65
2018-09-05T15:30:48.575Z,25.62
2018-09-05T15:35:32.286Z,25.60
2018-09-05T15:40:19.196Z,25.59
2018-09-05T15:45:02.466Z,25.49
2018-09-05T15:49:48.922Z,25.44
2018-09-05T15:54:32.307Z,25.36
2018-09-05T15:59:15.727Z,25.28
2018-09-05T16:03:59.214Z,25.15
2018-09-05T16:08:42.710Z,25.02
2018-09-05T16:13:26.359Z,24.96
2018-09-05T16:18:09.746Z,24.94
2018-09-05T16:22:53.377Z,24.86
2018-09-05T16:27:36.719Z,24.85
2018-09-05T16:32:21.242Z,24.85
2018-09-05T16:37:06.406Z,24.83
2018-09-05T16:41:50.750Z,24.76
2018-09-05T16:46:34.243Z,24.85
2018-09-05T16:51:18.531Z,24.85
2018-09-05T16:56:01.927Z,24.74
2018-09-05T17:00:46.411Z,24.79
2018-09-05T17:05:29.810Z,24.79
2018-09-05T17:10:16.553Z,24.68
2018-09-05T17:15:00.014Z,24.66
2018-09-05T17:19:43.566Z,24.63
2018-09-05T17:24:26.918Z,24.54
2018-09-05T17:29:10.238Z,24.58
2018-09-05T17:33:53.669Z,24.48
2018-09-05T17:38:37.060Z,24.48
2018-09-05T17:43:20.329Z,24.53
2018-09-05T17:48:03.575Z,24.41
2018-09-05T17:52:46.970Z,24.43
2018-09-05T17:57:30.361Z,24.41
2018-09-05T18:02:14.931Z,24.46
2018-09-05T18:06:58.297Z,24.31
2018-09-05T18:11:45.546Z,24.12
2018-09-05T18:16:29.892Z,24.25
2018-09-05T18:21:13.378Z,24.15
2018-09-05T18:25:56.824Z,23.92
2018-09-05T18:30:41.508Z,23.80
2018-09-05T18:35:25.000Z,23.92
2018-09-05T18:40:08.523Z,24.05
2018-09-05T18:44:51.926Z,24.10
2018-09-05T18:49:35.574Z,24.19
2018-09-05T18:54:19.001Z,24.28
2018-09-05T18:59:04.739Z,24.07
2018-09-05T19:03:48.798Z,24.07
2018-09-05T19:08:35.485Z,24.21
2018-09-05T19:13:18.956Z,24.02
2018-09-05T19:18:02.593Z,23.74
2018-09-05T19:22:46.120Z,23.73
2018-09-05T19:27:29.578Z,23.86
2018-09-05T19:32:14.006Z,23.56
2018-09-05T19:36:57.362Z,23.46
2018-09-05T19:41:41.846Z,23.35
2018-09-05T19:46:33.471Z,23.17
2018-09-05T19:51:17.066Z,22.88
2018-09-05T19:56:00.410Z,22.82
2018-09-05T20:00:43.933Z,22.84
2018-09-05T20:05:27.265Z,22.50
2018-09-05T20:10:10.638Z,22.36
2018-09-05T20:14:54.480Z,22.57
2018-09-05T20:19:38.336Z,22.80
2018-09-05T20:24:21.690Z,22.60
2018-09-05T20:29:05.343Z,22.23
2018-09-05T20:33:48.715Z,21.89
2018-09-05T20:38:32.287Z,21.59
2018-09-05T20:43:15.769Z,21.75
2018-09-05T20:47:59.314Z,21.75
2018-09-05T20:52:42.713Z,22.07
2018-09-05T20:57:26.014Z,22.01
2018-09-05T21:02:09.379Z,21.90
2018-09-05T21:06:52.715Z,21.94
2018-09-05T21:11:36.583Z,21.77
2018-09-05T21:16:20.053Z,21.77
2018-09-05T21:21:07.091Z,21.78
2018-09-05T21:25:51.229Z,21.70
2018-09-05T21:30:34.791Z,21.83
2018-09-05T21:35:18.174Z,21.89
2018-09-05T21:40:05.502Z,21.84
2018-09-05T21:44:48.866Z,21.62
2018-09-05T21:49:32.460Z,21.53
2018-09-05T21:54:15.803Z,21.13
2018-09-05T21:58:59.325Z,20.81
2018-09-05T22:03:43.561Z,20.76
2018-09-05T22:08:27.162Z,20.85
2018-09-05T22:13:11.645Z,20.84
2018-09-05T22:17:55.810Z,20.85
2018-09-05T22:22:39.729Z,20.81
2018-09-05T22:27:23.880Z,20.95
2018-09-05T22:32:07.802Z,21.07
2018-09-05T22:36:52.054Z,21.17
2018-09-05T22:41:38.523Z,21.13
2018-09-05T22:46:32.686Z,21.18
2018-09-05T22:52:13.831Z,21.09
2018-09-05T22:57:16.295Z,21.11
2018-09-05T23:04:16.632Z,21.40
2018-09-05T23:09:01.207Z,21.41
2018-09-05T23:13:56.102Z,21.47
2018-09-05T23:19:48.440Z,21.35
2018-09-05T23:24:31.769Z,21.29
2018-09-05T23:29:18.762Z,21.41
2018-09-05T23:34:02.137Z,21.35
2018-09-05T23:38:45.498Z,21.05
2018-09-05T23:43:28.798Z,20.93
2018-09-05T23:48:12.433Z,20.84
2018-09-05T23:52:55.803Z,20.61
2018-09-05T23:57:40.199Z,20.54
